• Join FlightAware (Why Join?)
  • Login
  • US Flag 
07:22PM EDT


 

Airport Tracker/Info


-or-


 

Live Flight TrackerFlight Track Log ✈ N57346 ✈ 14-Sep-2013 ✈ N96 - N30

Flight Track Log - Related Links

Times and Time Zones

All times are in EDT time to prevent confusion due to time zone crossing. See the N57346 flight status page for this flight to view local times or setup timezone preferences in your user account.

Time Position Orientation Groundspeed Altitude Reporting Facility
EDT Latitude Longitude Course Direction KTS MPH feet Rate Location/Type
11:29AM 40.9169 -77.7025 71° East 129 148 3,900  Level New York Center
11:30AM 40.9303 -77.6517 71° East 129 148 3,900  Level New York Center
11:31AM 40.9389 -77.6086 75° East 129 148 3,900  Level New York Center
11:32AM 40.9519 -77.5631 69° East 124 143 3,900  Level New York Center
11:33AM 40.9631 -77.5175 72° East 124 143 3,900 -120 Level New York Center
11:34AM 40.9761 -77.4664 71° East 124 143 3,700 -300 Descending New York Center
11:35AM 40.9872 -77.4181 73° East 129 148 3,400 -180 Descending New York Center
11:36AM 41.0025 -77.3700 67° East 129 148 3,400 -60 Level New York Center
11:37AM 41.0136 -77.3217 73° East 129 148 3,300 -60 Descending New York Center
11:38AM 41.0261 -77.2817 67° East 122 140 3,300 1,320 Level New York Center
11:39AM 41.0328 -77.2381 79° East 122 140 6,000 660 Climbing New York Center
11:40AM 41.0431 -77.2006 70° East 116 133 4,700 -420 Descending New York Center
11:41AM 41.0536 -77.1603 71° East 116 133 5,200 480 Climbing New York Center
11:42AM 41.0619 -77.1225 74° East 110 127 5,700 300 Climbing New York Center
11:43AM 41.0744 -77.0825 67° East 104 120 5,900 60 Climbing New York Center
11:44AM 41.0831 -77.0364 76° East 114 131 5,900  Level New York Center
11:45AM 41.0961 -76.9881 70° East 125 144 5,900  Level New York Center
11:46AM 41.1069 -76.9422 73° East 125 144 5,900  Level New York Center
11:47AM 41.1194 -76.8992 69° East 125 144 5,900  Level New York Center
11:48AM 41.1303 -76.8508 73° East 125 144 5,900  Level New York Center
11:49AM 41.1411 -76.8047 73° East 125 144 5,900  Level New York Center
11:50AM 41.1536 -76.7592 70° East 125 144 5,900  Level New York Center
11:51AM 41.1644 -76.7103 74° East 125 144 5,900  Level New York Center
11:52AM 41.1728 -76.6669 76° East 131 151 5,900  Level New York Center
11:53AM 41.1881 -76.6161 68° East 136 157 5,900  Level New York Center
11:54AM 41.1986 -76.5700 73° East 136 157 5,900  Level New York Center
11:55AM 41.2111 -76.5242 70° East 136 157 5,900  Level New York Center
11:56AM 41.2217 -76.4808 72° East 131 151 5,900  Level New York Center
11:57AM 41.2322 -76.4322 74° East 126 145 5,900  Level New York Center
11:58AM 41.2450 -76.3836 71° East 126 145 5,900  Level New York Center
11:59AM 41.2556 -76.3375 73° East 126 145 5,900  Level New York Center
12:00PM 41.2661 -76.2886 74° East 126 145 5,900  Level New York Center
12:01PM 41.2783 -76.2483 68° East 126 145 5,900  Level New York Center
12:02PM 41.2786 -76.1986 90° East 126 145 5,900  Level New York Center
12:03PM 41.2811 -76.1408 87° East 131 151 5,900  Level New York Center
12:04PM 41.2836 -76.0914 86° East 131 151 5,900  Level New York Center
12:05PM 41.2856 -76.0444 87° East 131 151 5,900  Level New York Center
12:06PM 41.2856 -75.9975 90° East 131 151 5,900  Level New York Center
12:07PM 41.2878 -75.9481 87° East 131 151 5,900  Level New York Center
12:08PM 41.2900 -75.8986 87° East 131 151 5,900  Level New York Center
12:09PM 41.2919 -75.8489 87° East 131 151 5,900  Level New York Center
12:10PM 41.2922 -75.7964 90° East 131 151 5,900  Level New York Center
12:11PM 41.2942 -75.7469 87° East 136 157 5,900  Level New York Center
12:13PM 41.3359 -75.6980 41° Northeast  Level FlightAware Approximate
12:20PM 41.4537 -75.4061 76° East  Level Estimated
12:21PM 41.4668 -75.3620 68° East  Level FlightAware Approximate
12:22PM 41.4799 -75.3179 68° East  Level FlightAware Approximate
12:23PM 41.4930 -75.2738 68° East  Level FlightAware Approximate
12:24PM 41.5000 -75.2500 North  Level FlightAware Approximate
12:25PM 41.5156 -75.2516 North  Level Estimated
12:26PM 41.5156 -75.2516 North  Level Estimated
12:27PM 41.5156 -75.2516 North  Level Estimated
12:28PM 41.5156 -75.2516 North  Level Estimated
12:29PM 41.5156 -75.2516 North  Level Estimated
12:30PM 41.5156 -75.2516 North  Level Estimated
12:31PM 41.5156 -75.2516 North  Level Estimated
12:32PM 41.5156 -75.2516 North  Level Estimated
12:33PM 41.5156 -75.2516 North  Level Estimated
12:34PM 41.5156 -75.2516 North  Level Estimated
12:35PM 41.5156 -75.2516 North  Level Estimated